Latest Weather Observations for Little Bay

IDN60901

Issued at 7:51 am EST Saturday 1 October 2016 (issued every 10 minutes, with the page automatically refreshed every 10 minutes)

About weather observations | Map of Sydney area stations | Latest observations for Sydney area | Other Formats
Station Details ID: 066051 Name: LITTLE BAY (THE COAST GOLF CLUB) Lat: -33.98 Lon: 151.25 Height: 22.0 m
Data from the previous 72 hours. | See also: Recent months for locations in New South Wales
Date/Time
EST
Temp
°C
App
Temp
°C
Dew
Point
°C
Rel
Hum
%
Delta-T
°C
Wind Press
QNH
hPa
Press
MSL
hPa
Rain since
9am
mm
Dir  Spd
km/h
Gust
km/h
Spd
kts
Gust
kts
01/07:30am - - - - - NW 19 30 10 16 - - -
01/07:00am - - - - - NW 15 30 8 16 - - -
01/06:30am - - - - - NW 17 30 9 16 - - -
01/06:00am - - - - - NW 13 24 7 13 - - -
01/05:30am - - - - - NNW 11 17 6 9 - - -
01/05:00am - - - - - NNW 11 17 6 9 - - -
01/04:30am - - - - - N 9 17 5 9 - - -
01/04:00am - - - - - N 7 13 4 7 - - -
01/03:30am - - - - - NNW 9 13 5 7 - - -
01/03:00am - - - - - N 9 13 5 7 - - -
01/02:30am - - - - - N 9 11 5 6 - - -
01/02:00am - - - - - N 4 6 2 3 - - -
01/01:30am - - - - - NNW 6 9 3 5 - - -
01/01:00am - - - - - N 6 7 3 4 - - -
01/12:30am - - - - - N 4 7 2 4 - - -
01/12:00am - - - - - NW 7 15 4 8 - - -
 
Date/Time
EST
Temp
°C
App
Temp
°C
Dew
Point
°C
Rel
Hum
%
Delta-T
°C
Wind Press
QNH
hPa
Press
MSL
hPa
Rain since
9am
mm
Dir  Spd
km/h
Gust
km/h
Spd
kts
Gust
kts
30/11:30pm - - - - - NW 7 13 4 7 - - -
30/11:00pm - - - - - NNW 7 15 4 8 - - -
30/10:30pm - - - - - NNW 11 17 6 9 - - -
30/10:00pm - - - - - NW 15 28 8 15 - - -
30/09:30pm - - - - - NNW 11 17 6 9 - - -
30/09:00pm - - - - - NW 9 17 5 9 - - -
30/08:30pm - - - - - NW 11 20 6 11 - - -
30/08:00pm - - - - - WNW 11 20 6 11 - - -
30/07:30pm - - - - - NW 17 28 9 15 - - -
30/07:00pm - - - - - NNW 11 20 6 11 - - -
30/06:30pm - - - - - NNW 15 24 8 13 - - -
30/06:00pm - - - - - NNW 17 32 9 17 - - -
30/05:30pm - - - - - NW 20 35 11 19 - - -
30/05:00pm - - - - - NNW 20 33 11 18 - - -
30/04:30pm - - - - - NNW 28 43 15 23 - - -
30/04:00pm - - - - - NNW 28 44 15 24 - - -
30/03:30pm - - - - - NW 24 46 13 25 - - -
30/03:21pm - - - - - NW 28 46 15 25 - - -
30/03:00pm - - - - - NW 26 43 14 23 - - -
30/02:51pm - - - - - NW 28 46 15 25 - - -
30/02:30pm - - - - - NNW 26 41 14 22 - - -
30/02:00pm - - - - - NNW 28 50 15 27 - - -
30/01:30pm - - - - - NNW 32 54 17 29 - - -
30/01:06pm - - - - - NW 28 50 15 27 - - -
30/01:00pm - - - - - NW 24 43 13 23 - - -
30/12:30pm - - - - - NW 28 43 15 23 - - -
30/12:00pm - - - - - NW 24 43 13 23 - - -
30/11:30am - - - - - WNW 24 41 13 22 - - -
30/11:00am - - - - - NNW 20 33 11 18 - - -
30/10:30am - - - - - NNW 20 37 11 20 - - -
30/10:00am - - - - - NNW 13 26 7 14 - - -
30/09:30am - - - - - NNW 19 30 10 16 - - -
30/09:00am - - - - - NNW 24 35 13 19 - - -
30/08:30am - - - - - NNW 20 35 11 19 - - -
30/08:00am - - - - - NNW 17 24 9 13 - - -
30/07:30am - - - - - N 19 32 10 17 - - -
30/07:00am - - - - - N 13 22 7 12 - - -
30/06:30am - - - - - N 13 19 7 10 - - -
30/06:00am - - - - - N 11 19 6 10 - - -
30/05:30am - - - - - NNW 13 20 7 11 - - -
30/05:00am - - - - - N 11 17 6 9 - - -
30/04:30am - - - - - NNW 15 22 8 12 - - -
30/04:00am - - - - - NNW 17 28 9 15 - - -
30/03:30am - - - - - NNW 19 32 10 17 - - -
30/03:00am - - - - - NNW 17 28 9 15 - - -
30/02:30am - - - - - NNW 17 28 9 15 - - -
30/02:00am - - - - - NNW 9 17 5 9 - - -
30/01:30am - - - - - NW 15 24 8 13 - - -
30/01:00am - - - - - NW 15 26 8 14 - - -
30/12:30am - - - - - NW 17 32 9 17 - - -
30/12:00am - - - - - NW 19 33 10 18 - - -
 
Date/Time
EST
Temp
°C
App
Temp
°C
Dew
Point
°C
Rel
Hum
%
Delta-T
°C
Wind Press
QNH
hPa
Press
MSL
hPa
Rain since
9am
mm
Dir  Spd
km/h
Gust
km/h
Spd
kts
Gust
kts
29/11:30pm - - - - - NW 20 39 11 21 - - -
29/11:00pm - - - - - NW 17 30 9 16 - - -
29/10:30pm - - - - - NW 17 28 9 15 - - -
29/10:00pm - - - - - WNW 19 37 10 20 - - -
29/09:30pm - - - - - NW 13 24 7 13 - - -
29/09:00pm - - - - - NW 11 20 6 11 - - -
29/08:30pm - - - - - NW 13 24 7 13 - - -
29/08:00pm - - - - - NW 17 32 9 17 - - -
29/07:30pm - - - - - NW 13 24 7 13 - - -
29/07:00pm - - - - - NW 15 26 8 14 - - -
29/06:30pm - - - - - NW 15 33 8 18 - - -
29/06:00pm - - - - - WNW 19 37 10 20 - - -
29/05:30pm - - - - - WNW 20 37 11 20 - - -
29/05:00pm - - - - - NW 22 37 12 20 - - -
29/04:30pm - - - - - N 17 26 9 14 - - -
29/04:00pm - - - - - NNE 26 39 14 21 - - -
29/03:30pm - - - - - NNE 22 32 12 17 - - -
29/03:00pm - - - - - N 17 30 9 16 - - -
29/02:30pm - - - - - NNE 22 35 12 19 - - -
29/02:00pm - - - - - N 20 30 11 16 - - -
29/01:30pm - - - - - N 24 35 13 19 - - -
29/01:00pm - - - - - N 24 35 13 19 - - -
29/12:30pm - - - - - N 26 39 14 21 - - -
29/12:00pm - - - - - N 24 37 13 20 - - -
29/11:30am - - - - - N 24 35 13 19 - - -
29/11:00am - - - - - N 22 33 12 18 - - -
29/10:30am - - - - - N 20 28 11 15 - - -
29/10:00am - - - - - N 22 33 12 18 - - -
29/09:30am - - - - - N 19 28 10 15 - - -
29/09:00am - - - - - N 17 24 9 13 - - -
29/08:30am - - - - - NNE 28 39 15 21 - - -
29/08:00am - - - - - NNE 24 35 13 19 - - -
29/07:30am - - - - - NNW 11 22 6 12 - - -
29/07:00am - - - - - NNE 20 32 11 17 - - -
29/06:30am - - - - - N 20 33 11 18 - - -
29/06:00am - - - - - NNW 19 30 10 16 - - -
29/05:30am - - - - - N 20 32 11 17 - - -
29/05:18am - - - - - N 28 46 15 25 - - -
29/05:00am - - - - - NNE 37 48 20 26 - - -
29/04:30am - - - - - NNE 30 39 16 21 - - -
29/04:00am - - - - - NNE 26 41 14 22 - - -
29/03:30am - - - - - N 19 28 10 15 - - -
29/03:00am - - - - - N 20 32 11 17 - - -
29/02:30am - - - - - N 20 37 11 20 - - -
29/02:00am - - - - - NW 9 17 5 9 - - -
29/01:30am - - - - - N 17 28 9 15 - - -
29/01:00am - - - - - N 19 28 10 15 - - -
29/12:30am - - - - - N 24 35 13 19 - - -
29/12:00am - - - - - NNE 30 44 16 24 - - -
 
Date/Time
EST
Temp
°C
App
Temp
°C
Dew
Point
°C
Rel
Hum
%
Delta-T
°C
Wind Press
QNH
hPa
Press
MSL
hPa
Rain since
9am
mm
Dir  Spd
km/h
Gust
km/h
Spd
kts
Gust
kts
28/11:30pm - - - - - NNE 24 37 13 20 - - -
28/11:00pm - - - - - NNE 26 37 14 20 - - -
28/10:30pm - - - - - NNE 26 39 14 21 - - -
28/10:00pm - - - - - NNE 30 41 16 22 - - -
28/09:30pm - - - - - NNE 26 37 14 20 - - -
28/09:00pm - - - - - NNE 26 35 14 19 - - -
28/08:30pm - - - - - NNE 24 30 13 16 - - -
28/08:00pm - - - - - NE 22 32 12 17 - - -
28/07:30pm - - - - - NE 19 26 10 14 - - -
28/07:00pm - - - - - NE 20 28 11 15 - - -
28/06:30pm - - - - - NE 17 24 9 13 - - -
28/06:00pm - - - - - NE 17 24 9 13 - - -
28/05:30pm - - - - - ENE 15 20 8 11 - - -
28/05:00pm - - - - - ENE 17 20 9 11 - - -
28/04:30pm - - - - - ENE 13 20 7 11 - - -
28/04:00pm - - - - - ENE 15 20 8 11 - - -
28/03:30pm - - - - - E 13 17 7 9 - - -
28/03:00pm - - - - - E 13 17 7 9 - - -
28/02:30pm - - - - - ESE 13 17 7 9 - - -
28/02:00pm - - - - - ESE 11 15 6 8 - - -
28/01:30pm - - - - - ESE 9 13 5 7 - - -
28/01:00pm - - - - - SE 11 19 6 10 - - -
28/12:30pm - - - - - SE 11 15 6 8 - - -
28/12:00pm - - - - - SE 11 17 6 9 - - -
28/11:30am - - - - - SSE 9 15 5 8 - - -
28/11:00am - - - - - S 13 19 7 10 - - -
28/10:30am - - - - - S 13 20 7 11 - - -
28/10:00am - - - - - SSW 13 19 7 10 - - -
28/09:30am - - - - - WSW 9 15 5 8 - - -
28/09:00am - - - - - W 9 15 5 8 - - -
28/08:30am - - - - - W 15 20 8 11 - - -
28/08:00am - - - - - W 19 22 10 12 - - -

Latest Capital City Observations: Canberra | Sydney | Melbourne | Brisbane | Adelaide | Perth | Hobart | Darwin

Other Formats:

Comma delimited format used in spreadsheet applications
http://www.bom.gov.au/fwo/IDN60901/IDN60901.94780.axf

JavaScript Object Notation format (JSON) in row-major order
http://www.bom.gov.au/fwo/IDN60901/IDN60901.94780.json